Time;durP1;ratioP1;P1;durP2;ratioP2;P2;SDS_P1;SDS_P2;PMS_P1;PMS_P2;Temp;Humidity;BMP_temperature;BMP_pressure;BME280_temperature;BME280_humidity;BME280_pressure;Samples;Min_cycle;Max_cycle;Signal;HPM_P1;HPM_P2
2021/07/20 00:02:39;;;;;;;7.43;6.70;;;;;;;;;;5093758;28;20027;-60
2021/07/20 00:05:05;;;;;;;7.93;6.20;;;;;;;;;;5093647;28;20031;-61
2021/07/20 00:07:31;;;;;;;7.53;6.75;;;;;;;;;;5093451;28;20051;-68
2021/07/20 00:09:56;;;;;;;7.93;6.50;;;;;;;;;;5093685;28;20028;-68
2021/07/20 00:12:22;;;;;;;7.88;6.35;;;;;;;;;;5093631;28;20008;-68
2021/07/20 00:14:47;;;;;;;8.60;7.18;;;;;;;;;;5075007;28;20081;-68
2021/07/20 00:17:13;;;;;;;7.93;6.30;;;;;;;;;;5075804;28;20157;-60
2021/07/20 00:19:38;;;;;;;10.15;6.57;;;;;;;;;;5093477;28;20024;-61
2021/07/20 00:22:03;;;;;;;7.13;6.47;;;;;;;;;;5093488;28;20024;-60
2021/07/20 00:24:29;;;;;;;7.55;6.63;;;;;;;;;;5093640;28;20416;-60
2021/07/20 00:26:54;;;;;;;11.50;6.72;;;;;;;;;;5093453;28;20024;-60
2021/07/20 00:29:20;;;;;;;7.53;6.63;;;;;;;;;;5093283;28;20032;-60
2021/07/20 00:31:45;;;;;;;7.47;6.47;;;;;;;;;;5075370;28;20012;-60
2021/07/20 00:34:11;;;;;;;8.73;7.03;;;;;;;;;;5075241;28;20032;-60
2021/07/20 00:36:36;;;;;;;9.38;7.22;;;;;;;;;;5093369;28;20083;-60
2021/07/20 00:39:03;;;;;;;8.20;6.75;;;;;;;;;;5075147;28;20024;-60
2021/07/20 00:41:28;;;;;;;9.55;7.18;;;;;;;;;;5092875;28;20036;-60
2021/07/20 00:43:54;;;;;;;7.95;7.15;;;;;;;;;;5095369;28;20028;-60
2021/07/20 00:46:21;;;;;;;7.28;6.57;;;;;;;;;;5079104;28;20479;-60
2021/07/20 00:48:47;;;;;;;8.00;6.93;;;;;;;;;;5097420;28;20066;-61
2021/07/20 00:51:25;;;;;;;8.82;7.22;;;;;;;;;;5079191;28;20013;-62
2021/07/20 00:53:51;;;;;;;8.73;7.18;;;;;;;;;;5079026;28;20118;-60
2021/07/20 00:56:23;;;;;;;8.88;7.15;;;;;;;;;;5097044;28;20065;-61
2021/07/20 00:58:49;;;;;;;8.48;6.88;;;;;;;;;;5079094;28;20031;-60
2021/07/20 01:01:15;;;;;;;9.43;7.18;;;;;;;;;;5078716;28;20027;-60
2021/07/20 01:03:45;;;;;;;8.85;6.43;;;;;;;;;;5078928;28;20035;-60
2021/07/20 01:06:13;;;;;;;9.98;6.68;;;;;;;;;;5078858;28;20039;-61
2021/07/20 01:08:40;;;;;;;9.10;6.22;;;;;;;;;;5078394;28;20020;-60
2021/07/20 01:11:07;;;;;;;7.72;6.65;;;;;;;;;;5078543;28;20024;-60
2021/07/20 01:13:34;;;;;;;7.65;6.38;;;;;;;;;;5096822;28;20024;-61
2021/07/20 01:16:02;;;;;;;8.00;6.53;;;;;;;;;;5078667;28;20421;-60
2021/07/20 01:18:28;;;;;;;7.63;6.60;;;;;;;;;;5078333;28;20036;-61
2021/07/20 01:20:55;;;;;;;10.75;6.90;;;;;;;;;;5096382;28;20027;-60
2021/07/20 01:23:44;;;;;;;8.05;7.10;;;;;;;;;;5077990;28;20024;-69
2021/07/20 01:26:12;;;;;;;7.60;6.55;;;;;;;;;;5078559;28;20024;-68
2021/07/20 01:28:41;;;;;;;7.70;6.53;;;;;;;;;;5096387;28;20055;-68
2021/07/20 01:31:15;;;;;;;9.05;6.43;;;;;;;;;;5077999;28;20044;-68
2021/07/20 01:33:43;;;;;;;7.90;6.38;;;;;;;;;;5078269;28;20024;-67
2021/07/20 01:36:09;;;;;;;7.50;6.68;;;;;;;;;;5078030;28;20051;-67
2021/07/20 01:38:39;;;;;;;8.25;6.72;;;;;;;;;;5096371;28;20085;-66
2021/07/20 01:41:07;;;;;;;9.30;7.07;;;;;;;;;;5077516;28;20436;-66
2021/07/20 01:43:33;;;;;;;8.93;6.97;;;;;;;;;;5096274;28;20114;-65
2021/07/20 01:46:00;;;;;;;8.93;6.93;;;;;;;;;;5061238;28;20031;-65
2021/07/20 01:48:31;;;;;;;9.75;7.03;;;;;;;;;;5096168;28;20471;-66
2021/07/20 01:50:57;;;;;;;8.25;6.93;;;;;;;;;;5095981;28;20491;-66
2021/07/20 01:53:22;;;;;;;9.73;6.53;;;;;;;;;;5095914;28;20016;-66
2021/07/20 01:55:48;;;;;;;8.52;6.57;;;;;;;;;;5077712;28;20132;-66
2021/07/20 01:58:14;;;;;;;8.25;6.70;;;;;;;;;;5096234;28;20375;-65
2021/07/20 02:00:57;;;;;;;9.27;6.40;;;;;;;;;;5062713;28;20085;-67
2021/07/20 02:09:09;;;;;;;8.57;6.47;;;;;;;;;;5077328;28;20048;-69
2021/07/20 02:11:37;;;;;;;10.05;7.07;;;;;;;;;;5077314;28;20028;-70
2021/07/20 02:14:27;;;;;;;9.88;6.80;;;;;;;;;;5094873;28;20032;-71
2021/07/20 02:17:14;;;;;;;10.65;6.72;;;;;;;;;;5094889;28;20040;-70
2021/07/20 02:19:40;;;;;;;8.45;6.53;;;;;;;;;;5077650;28;20032;-69
2021/07/20 02:22:17;;;;;;;8.27;7.13;;;;;;;;;;5077499;28;20027;-69
2021/07/20 02:24:47;;;;;;;7.05;6.38;;;;;;;;;;5076956;28;20032;-60
2021/07/20 02:27:13;;;;;;;7.50;6.50;;;;;;;;;;5076936;28;20104;-60
2021/07/20 02:30:00;;;;;;;8.40;6.53;;;;;;;;;;5095593;28;20127;-60
2021/07/20 02:32:27;;;;;;;7.35;6.18;;;;;;;;;;5094987;28;20114;-60
2021/07/20 02:34:54;;;;;;;7.18;6.47;;;;;;;;;;5076946;28;20016;-61
2021/07/20 02:37:21;;;;;;;7.55;6.38;;;;;;;;;;5076869;28;20025;-60
2021/07/20 02:39:48;;;;;;;9.07;6.55;;;;;;;;;;5077066;28;20421;-60
2021/07/20 02:42:15;;;;;;;9.63;6.80;;;;;;;;;;5073180;28;20412;-60
2021/07/20 02:44:42;;;;;;;9.32;6.75;;;;;;;;;;5073499;28;20029;-60
2021/07/20 02:47:08;;;;;;;9.15;6.95;;;;;;;;;;5074392;28;20028;-60
2021/07/20 02:49:36;;;;;;;10.48;6.97;;;;;;;;;;5073272;28;20065;-69
2021/07/20 02:52:02;;;;;;;10.57;6.70;;;;;;;;;;5073072;28;20062;-67
2021/07/20 02:54:30;;;;;;;9.65;6.18;;;;;;;;;;5073004;28;20016;-68
2021/07/20 02:56:56;;;;;;;11.52;6.50;;;;;;;;;;5073146;28;20032;-61
2021/07/20 02:59:24;;;;;;;8.77;6.88;;;;;;;;;;5073636;28;20083;-68
2021/07/20 03:02:10;;;;;;;7.28;6.28;;;;;;;;;;5073397;28;20120;-67
2021/07/20 03:04:38;;;;;;;8.05;6.40;;;;;;;;;;5072714;28;20029;-67
2021/07/20 03:07:08;;;;;;;8.15;6.40;;;;;;;;;;5072094;28;20480;-67
2021/07/20 03:09:39;;;;;;;8.98;6.80;;;;;;;;;;5072882;28;20028;-67
2021/07/20 03:12:11;;;;;;;10.43;6.55;;;;;;;;;;5072549;28;20029;-68
2021/07/20 03:14:38;;;;;;;9.90;6.53;;;;;;;;;;5072802;28;20360;-68
2021/07/20 03:17:12;;;;;;;10.15;6.85;;;;;;;;;;5057018;28;20028;-68
2021/07/20 03:19:39;;;;;;;7.85;6.55;;;;;;;;;;5073074;28;20028;-68
2021/07/20 03:22:08;;;;;;;8.63;5.95;;;;;;;;;;5056532;28;20028;-68
2021/07/20 03:24:39;;;;;;;8.77;6.68;;;;;;;;;;5072595;28;20545;-68
2021/07/20 03:27:06;;;;;;;7.07;6.35;;;;;;;;;;5072613;28;20029;-68
2021/07/20 03:29:42;;;;;;;11.10;6.63;;;;;;;;;;5072450;28;20023;-68
2021/07/20 03:32:12;;;;;;;6.82;6.13;;;;;;;;;;5072683;28;20548;-67
2021/07/20 03:34:40;;;;;;;9.07;6.47;;;;;;;;;;5072443;28;20185;-68
2021/07/20 03:37:07;;;;;;;7.07;6.38;;;;;;;;;;5072377;28;20036;-68
2021/07/20 03:39:36;;;;;;;10.00;7.30;;;;;;;;;;5072512;28;20050;-69
2021/07/20 03:42:02;;;;;;;10.45;6.57;;;;;;;;;;5087478;28;20048;-60
2021/07/20 03:44:29;;;;;;;9.52;7.47;;;;;;;;;;5093656;28;20031;-60
2021/07/20 03:46:57;;;;;;;7.80;6.70;;;;;;;;;;5074831;28;20056;-61
2021/07/20 03:49:27;;;;;;;8.50;6.63;;;;;;;;;;5075542;28;20016;-60
2021/07/20 03:51:58;;;;;;;9.18;6.45;;;;;;;;;;5075103;28;20483;-60
2021/07/20 03:54:23;;;;;;;;;;;;;;;;;;5075353;28;20640;-69
2021/07/20 03:56:50;;;;;;;10.00;6.80;;;;;;;;;;5090136;28;19999;-70
2021/07/20 03:59:18;;;;;;;8.15;6.53;;;;;;;;;;5074963;28;20036;-70
2021/07/20 04:02:05;;;;;;;7.13;6.53;;;;;;;;;;5082573;28;20036;-69
2021/07/20 04:04:34;;;;;;;9.35;6.50;;;;;;;;;;5093716;28;20521;-69
2021/07/20 04:07:20;;;;;;;8.55;6.57;;;;;;;;;;5074615;28;20384;-69
2021/07/20 04:10:19;;;;;;;9.48;6.55;;;;;;;;;;5078509;28;20044;-69
2021/07/20 04:13:04;;;;;;;7.43;6.57;;;;;;;;;;5094149;28;20120;-70
2021/07/20 04:15:51;;;;;;;10.18;6.68;;;;;;;;;;5075217;28;20417;-68
2021/07/20 04:18:20;;;;;;;7.38;6.63;;;;;;;;;;5076434;28;20032;-68
2021/07/20 04:20:47;;;;;;;7.63;6.82;;;;;;;;;;5079294;28;20228;-69
2021/07/20 04:23:14;;;;;;;8.15;6.63;;;;;;;;;;5079221;28;20024;-70
2021/07/20 04:25:48;;;;;;;7.03;6.30;;;;;;;;;;5079465;28;20111;-70
2021/07/20 04:28:18;;;;;;;8.45;6.75;;;;;;;;;;5079283;28;20107;-70
2021/07/20 04:30:45;;;;;;;12.88;7.32;;;;;;;;;;5079078;28;20077;-69
2021/07/20 04:33:25;;;;;;;10.73;6.45;;;;;;;;;;5078958;28;20020;-69
2021/07/20 04:36:18;;;;;;;8.80;6.70;;;;;;;;;;5052181;28;20062;-69
2021/07/20 04:38:45;;;;;;;8.68;6.53;;;;;;;;;;5079077;28;20051;-69
2021/07/20 04:41:15;;;;;;;7.22;6.43;;;;;;;;;;5096288;28;20403;-69
2021/07/20 04:43:44;;;;;;;9.15;6.78;;;;;;;;;;5078948;28;20035;-69
2021/07/20 04:46:11;;;;;;;8.10;6.97;;;;;;;;;;5078985;28;20024;-69
2021/07/20 04:48:39;;;;;;;7.85;6.93;;;;;;;;;;5078988;28;20032;-68
2021/07/20 04:51:12;;;;;;;9.35;7.80;;;;;;;;;;5096935;28;20106;-69
2021/07/20 04:53:39;;;;;;;7.75;6.93;;;;;;;;;;5078929;28;20032;-70
2021/07/20 04:56:05;;;;;;;9.60;6.95;;;;;;;;;;5078740;28;20019;-70
2021/07/20 04:58:33;;;;;;;7.97;6.85;;;;;;;;;;5078773;28;20066;-69
2021/07/20 05:00:58;;;;;;;11.90;7.25;;;;;;;;;;5096791;28;20048;-69
2021/07/20 05:03:25;;;;;;;9.10;7.32;;;;;;;;;;5096564;28;20028;-69
2021/07/20 05:05:52;;;;;;;10.15;7.18;;;;;;;;;;5078544;28;20039;-70
2021/07/20 05:08:19;;;;;;;8.27;7.32;;;;;;;;;;5078246;28;20032;-69
2021/07/20 05:10:51;;;;;;;8.70;7.00;;;;;;;;;;5078308;28;20016;-69
2021/07/20 05:13:21;;;;;;;;;;;;;;;;;;5079019;28;20376;-69
2021/07/20 05:15:51;;;;;;;9.20;7.32;;;;;;;;;;5096338;28;19908;-69
2021/07/20 05:18:19;;;;;;;10.20;7.43;;;;;;;;;;5078154;28;20031;-69
2021/07/20 05:20:48;;;;;;;8.95;7.43;;;;;;;;;;5078202;28;20032;-69
2021/07/20 05:23:16;;;;;;;9.73;7.03;;;;;;;;;;5078233;28;20115;-69
2021/07/20 05:25:42;;;;;;;9.13;7.00;;;;;;;;;;5078041;28;20067;-69
2021/07/20 05:28:10;;;;;;;14.25;7.80;;;;;;;;;;5096046;28;20028;-69
2021/07/20 05:30:36;;;;;;;9.80;7.13;;;;;;;;;;5077446;28;20016;-69
2021/07/20 05:33:02;;;;;;;8.65;7.65;;;;;;;;;;5077791;28;20048;-69
2021/07/20 05:35:36;;;;;;;10.40;6.78;;;;;;;;;;5062456;28;20055;-69
2021/07/20 05:38:03;;;;;;;11.98;7.68;;;;;;;;;;5077957;28;20028;-69
2021/07/20 05:40:29;;;;;;;8.60;7.30;;;;;;;;;;5095635;28;20085;-70
2021/07/20 05:42:57;;;;;;;9.13;7.60;;;;;;;;;;5077772;28;20031;-69
2021/07/20 05:45:38;;;;;;;10.50;7.25;;;;;;;;;;5077888;28;20402;-69
2021/07/20 05:48:05;;;;;;;9.52;7.75;;;;;;;;;;5095781;28;20119;-69
2021/07/20 05:50:47;;;;;;;11.35;7.53;;;;;;;;;;5077690;28;20020;-70
2021/07/20 05:53:36;;;;;;;8.85;7.03;;;;;;;;;;5063964;28;20055;-70
2021/07/20 05:56:25;;;;;;;10.63;7.75;;;;;;;;;;5054056;28;20372;-70
2021/07/20 05:59:01;;;;;;;10.88;7.90;;;;;;;;;;5077672;28;20039;-70
2021/07/20 06:01:29;;;;;;;10.35;7.45;;;;;;;;;;5077418;28;20036;-70
2021/07/20 06:03:59;;;;;;;12.02;7.53;;;;;;;;;;5077453;28;20020;-69
2021/07/20 06:06:25;;;;;;;;;;;;;;;;;;5095884;28;20082;-70
2021/07/20 06:08:50;;;;;;;9.25;7.35;;;;;;;;;;5095339;28;19904;-69
2021/07/20 06:11:17;;;;;;;10.32;7.32;;;;;;;;;;5077392;28;20028;-70
2021/07/20 06:13:42;;;;;;;11.85;7.63;;;;;;;;;;5095247;28;20484;-70
2021/07/20 06:16:09;;;;;;;11.52;7.57;;;;;;;;;;5095272;28;20032;-70
2021/07/20 06:18:35;;;;;;;8.48;7.35;;;;;;;;;;5095360;28;20016;-70
2021/07/20 06:21:04;;;;;;;11.93;7.63;;;;;;;;;;5095202;28;20021;-70
2021/07/20 06:23:34;;;;;;;8.70;7.53;;;;;;;;;;5095153;28;20482;-70
2021/07/20 06:26:01;;;;;;;11.10;7.15;;;;;;;;;;5076903;28;20028;-70
2021/07/20 06:28:26;;;;;;;9.70;7.65;;;;;;;;;;5094988;28;20023;-70
2021/07/20 06:30:52;;;;;;;9.85;7.40;;;;;;;;;;5094971;28;20020;-70
2021/07/20 06:33:19;;;;;;;10.40;7.72;;;;;;;;;;5094354;28;20026;-70
2021/07/20 06:35:46;;;;;;;7.90;7.10;;;;;;;;;;5094784;28;20123;-69
2021/07/20 06:38:16;;;;;;;9.60;7.72;;;;;;;;;;5076791;28;20020;-69
2021/07/20 06:40:42;;;;;;;11.88;7.70;;;;;;;;;;5093210;28;20040;-67
2021/07/20 06:43:09;;;;;;;9.90;7.95;;;;;;;;;;5095273;28;20479;-69
2021/07/20 06:45:38;;;;;;;10.18;7.35;;;;;;;;;;5094931;28;20364;-68
2021/07/20 06:48:03;;;;;;;12.82;8.02;;;;;;;;;;5094562;28;20040;-68
2021/07/20 06:50:29;;;;;;;11.20;7.97;;;;;;;;;;5094349;28;20387;-69
2021/07/20 06:52:55;;;;;;;13.20;8.20;;;;;;;;;;5094751;28;20020;-68
2021/07/20 06:55:22;;;;;;;12.57;8.35;;;;;;;;;;5094474;28;20113;-68
2021/07/20 06:57:51;;;;;;;11.82;7.55;;;;;;;;;;5094365;28;20028;-68
2021/07/20 07:00:18;;;;;;;8.27;7.30;;;;;;;;;;5076514;28;20053;-68
2021/07/20 07:02:45;;;;;;;13.45;7.43;;;;;;;;;;5094480;28;20391;-69
2021/07/20 07:05:12;;;;;;;9.45;7.45;;;;;;;;;;5094628;28;20018;-68
2021/07/20 07:07:38;;;;;;;13.25;7.78;;;;;;;;;;5094237;28;20039;-68
2021/07/20 07:10:05;;;;;;;12.50;8.00;;;;;;;;;;5094395;28;20368;-69
2021/07/20 07:12:32;;;;;;;9.57;7.80;;;;;;;;;;5094189;28;20111;-69
2021/07/20 07:14:59;;;;;;;10.00;7.40;;;;;;;;;;5076261;28;20475;-69
2021/07/20 07:17:24;;;;;;;11.30;7.63;;;;;;;;;;5093989;28;20039;-68
2021/07/20 07:19:51;;;;;;;14.95;7.55;;;;;;;;;;5093946;28;20016;-68
2021/07/20 07:22:18;;;;;;;11.50;8.20;;;;;;;;;;5093904;28;20038;-69
2021/07/20 07:24:44;;;;;;;9.77;7.20;;;;;;;;;;5093990;28;20016;-68
2021/07/20 07:27:10;;;;;;;9.55;7.55;;;;;;;;;;5093852;28;20032;-68
2021/07/20 07:29:36;;;;;;;11.77;7.97;;;;;;;;;;5094019;28;20095;-69
2021/07/20 07:32:01;;;;;;;11.05;7.88;;;;;;;;;;5093887;28;20039;-68
2021/07/20 07:34:27;;;;;;;11.52;8.05;;;;;;;;;;5093859;28;20108;-68
2021/07/20 07:36:53;;;;;;;13.85;8.02;;;;;;;;;;5075635;28;20024;-69
2021/07/20 07:39:21;;;;;;;11.10;7.30;;;;;;;;;;5093673;28;20028;-69
2021/07/20 07:41:47;;;;;;;13.27;8.02;;;;;;;;;;5093101;28;20047;-69
2021/07/20 07:44:14;;;;;;;13.75;8.40;;;;;;;;;;5093520;28;20040;-69
2021/07/20 07:46:41;;;;;;;11.95;7.60;;;;;;;;;;5093449;28;20024;-68
2021/07/20 07:49:10;;;;;;;10.82;7.45;;;;;;;;;;5075331;28;20023;-68
2021/07/20 07:51:38;;;;;;;9.57;6.80;;;;;;;;;;5093431;28;20035;-68
2021/07/20 07:54:04;;;;;;;12.07;7.32;;;;;;;;;;5093571;28;20065;-68
2021/07/20 07:56:30;;;;;;;12.02;7.93;;;;;;;;;;5093485;28;20024;-68
2021/07/20 07:58:55;;;;;;;9.63;8.07;;;;;;;;;;5093304;28;20027;-67
2021/07/20 08:01:22;;;;;;;12.95;7.95;;;;;;;;;;5093358;28;20078;-68
2021/07/20 08:03:49;;;;;;;13.98;8.02;;;;;;;;;;5093324;28;20111;-68
2021/07/20 08:06:20;;;;;;;11.38;7.90;;;;;;;;;;5093224;28;20386;-68
2021/07/20 08:08:48;;;;;;;8.80;7.20;;;;;;;;;;5093385;28;20028;-68
2021/07/20 08:11:14;;;;;;;11.98;7.50;;;;;;;;;;5093433;28;20019;-70
2021/07/20 08:13:41;;;;;;;10.05;7.50;;;;;;;;;;5093221;28;20052;-71
2021/07/20 08:16:07;;;;;;;10.93;7.78;;;;;;;;;;5093418;28;20020;-60
2021/07/20 08:18:33;;;;;;;9.57;7.57;;;;;;;;;;5093267;28;20028;-60
2021/07/20 08:21:02;;;;;;;11.18;7.57;;;;;;;;;;5093139;28;20024;-60
2021/07/20 08:23:29;;;;;;;11.98;7.72;;;;;;;;;;5093053;28;20115;-60
2021/07/20 08:25:57;;;;;;;9.82;7.22;;;;;;;;;;5093009;28;20028;-60
2021/07/20 08:28:22;;;;;;;8.20;7.40;;;;;;;;;;5093031;28;20085;-60
2021/07/20 08:30:49;;;;;;;10.48;7.50;;;;;;;;;;5093154;28;20020;-60
2021/07/20 08:33:22;;;;;;;11.68;8.18;;;;;;;;;;5093187;28;20075;-60
2021/07/20 08:35:49;;;;;;;12.38;7.50;;;;;;;;;;5093012;28;20483;-60
2021/07/20 08:38:15;;;;;;;12.52;7.38;;;;;;;;;;5093106;28;20052;-60
2021/07/20 08:40:50;;;;;;;10.05;7.40;;;;;;;;;;5092619;28;20079;-60
2021/07/20 08:43:34;;;;;;;10.77;7.78;;;;;;;;;;5093010;28;20063;-60
2021/07/20 08:46:29;;;;;;;10.35;7.93;;;;;;;;;;5093060;28;20032;-60
2021/07/20 08:49:05;;;;;;;12.45;7.57;;;;;;;;;;5071054;28;20043;-60
2021/07/20 08:51:38;;;;;;;9.73;7.22;;;;;;;;;;5093390;28;20036;-60
2021/07/20 08:54:12;;;;;;;10.45;7.25;;;;;;;;;;5093235;28;20403;-60
2021/07/20 08:56:44;;;;;;;13.73;7.47;;;;;;;;;;5092966;28;20120;-60
2021/07/20 08:59:15;;;;;;;10.27;7.13;;;;;;;;;;5092945;28;20123;-60
2021/07/20 09:01:54;;;;;;;11.15;7.80;;;;;;;;;;5093001;28;20483;-60
2021/07/20 09:04:30;;;;;;;9.43;7.38;;;;;;;;;;5094128;28;20048;-60
2021/07/20 09:07:12;;;;;;;10.10;7.80;;;;;;;;;;5096563;28;20024;-60
2021/07/20 09:09:39;;;;;;;14.82;7.85;;;;;;;;;;5096617;28;20055;-60
2021/07/20 09:12:11;;;;;;;11.38;7.78;;;;;;;;;;5096550;28;20023;-60
2021/07/20 09:14:56;;;;;;;10.90;7.28;;;;;;;;;;5096466;28;20383;-60
2021/07/20 09:17:25;;;;;;;12.38;7.57;;;;;;;;;;5096495;28;20035;-60
2021/07/20 09:19:55;;;;;;;11.43;6.85;;;;;;;;;;5096616;28;20016;-60
2021/07/20 09:22:24;;;;;;;9.48;7.22;;;;;;;;;;5078449;28;20039;-60
2021/07/20 09:24:49;;;;;;;10.73;7.40;;;;;;;;;;5096270;28;20098;-60
2021/07/20 09:27:30;;;;;;;10.50;7.65;;;;;;;;;;5096395;28;20119;-60
2021/07/20 09:29:58;;;;;;;9.18;7.28;;;;;;;;;;5096528;28;20024;-60
2021/07/20 09:32:26;;;;;;;10.35;7.28;;;;;;;;;;5096223;28;20429;-60
2021/07/20 09:34:59;;;;;;;8.68;6.25;;;;;;;;;;5096113;28;20025;-60
2021/07/20 09:37:33;;;;;;;11.85;6.97;;;;;;;;;;5096097;28;20024;-60
2021/07/20 09:40:06;;;;;;;10.52;7.03;;;;;;;;;;5096172;28;20032;-60
2021/07/20 09:42:32;;;;;;;10.75;7.57;;;;;;;;;;5095801;28;20441;-60
2021/07/20 09:45:03;;;;;;;8.82;7.13;;;;;;;;;;5095953;28;20040;-60
2021/07/20 09:47:47;;;;;;;12.27;7.50;;;;;;;;;;5095609;28;20115;-60
2021/07/20 09:50:16;;;;;;;9.82;6.80;;;;;;;;;;5095957;28;20031;-60
2021/07/20 09:53:00;;;;;;;11.70;6.85;;;;;;;;;;5095884;28;20024;-60
2021/07/20 09:55:34;;;;;;;11.75;7.28;;;;;;;;;;5095707;28;20468;-60
2021/07/20 09:58:06;;;;;;;10.43;7.10;;;;;;;;;;5095684;28;20073;-60
2021/07/20 10:01:01;;;;;;;10.68;6.88;;;;;;;;;;5095507;28;20028;-61
2021/07/20 10:03:46;;;;;;;8.90;6.95;;;;;;;;;;5005983;28;20089;-60
2021/07/20 10:06:31;;;;;;;11.20;6.90;;;;;;;;;;5095872;28;20038;-60
2021/07/20 10:09:02;;;;;;;9.48;6.70;;;;;;;;;;5095439;28;20028;-60
2021/07/20 10:11:46;;;;;;;9.70;7.07;;;;;;;;;;5094952;28;20051;-60
2021/07/20 10:14:27;;;;;;;9.93;6.75;;;;;;;;;;5095500;28;20025;-60
2021/07/20 10:17:17;;;;;;;8.32;6.82;;;;;;;;;;5094019;28;20035;-60
2021/07/20 10:19:46;;;;;;;9.75;6.65;;;;;;;;;;5095428;28;20032;-60
2021/07/20 10:22:13;;;;;;;8.45;6.30;;;;;;;;;;5095227;28;20024;-60
2021/07/20 10:24:42;;;;;;;6.03;5.47;;;;;;;;;;5095336;28;20035;-60
2021/07/20 10:27:25;;;;;;;8.25;6.78;;;;;;;;;;5095197;28;20012;-61
2021/07/20 10:30:04;;;;;;;9.07;6.63;;;;;;;;;;5095047;28;20386;-60
2021/07/20 10:32:40;;;;;;;11.02;7.22;;;;;;;;;;5095233;28;20027;-60
2021/07/20 10:35:10;;;;;;;8.30;6.28;;;;;;;;;;5094913;28;20032;-60
2021/07/20 10:37:39;;;;;;;8.37;6.70;;;;;;;;;;5094960;28;20031;-60
2021/07/20 10:40:16;;;;;;;10.52;7.07;;;;;;;;;;5094885;28;20026;-60
2021/07/20 10:42:53;;;;;;;9.00;7.22;;;;;;;;;;5073011;28;20417;-60
2021/07/20 10:45:21;;;;;;;12.00;7.10;;;;;;;;;;5073422;28;20052;-60
2021/07/20 10:47:54;;;;;;;8.05;7.25;;;;;;;;;;5073160;28;20021;-60
2021/07/20 10:50:38;;;;;;;8.73;6.78;;;;;;;;;;5074627;28;20058;-60
2021/07/20 10:53:04;;;;;;;10.15;6.78;;;;;;;;;;5074419;28;20021;-60
2021/07/20 10:55:35;;;;;;;12.23;6.15;;;;;;;;;;5074402;28;20017;-60
2021/07/20 10:58:21;;;;;;;9.60;6.13;;;;;;;;;;5074243;28;20115;-60
2021/07/20 11:01:05;;;;;;;10.55;6.70;;;;;;;;;;5032847;28;20044;-60
2021/07/20 11:03:49;;;;;;;5.50;4.95;;;;;;;;;;5074286;28;20024;-60
2021/07/20 11:06:16;;;;;;;8.38;5.18;;;;;;;;;;5074087;28;20031;-60
2021/07/20 11:08:44;;;;;;;7.38;5.25;;;;;;;;;;5074252;28;20107;-60
2021/07/20 11:11:16;;;;;;;5.72;5.13;;;;;;;;;;5074132;28;20082;-60
2021/07/20 11:13:42;;;;;;;7.40;5.40;;;;;;;;;;5074148;28;20029;-60
2021/07/20 11:16:09;;;;;;;6.72;4.72;;;;;;;;;;5074181;28;20047;-60
2021/07/20 11:18:36;;;;;;;12.35;5.80;;;;;;;;;;5073845;28;20033;-60
2021/07/20 11:21:03;;;;;;;7.70;5.10;;;;;;;;;;5073847;28;20016;-60
2021/07/20 11:23:31;;;;;;;7.70;6.10;;;;;;;;;;5073832;28;20488;-60
2021/07/20 11:25:57;;;;;;;9.30;6.43;;;;;;;;;;5073718;28;20020;-60
2021/07/20 11:28:24;;;;;;;7.55;5.60;;;;;;;;;;5073030;28;20063;-60
2021/07/20 11:30:51;;;;;;;8.02;5.65;;;;;;;;;;5073529;28;20051;-61
2021/07/20 11:33:18;;;;;;;6.80;6.10;;;;;;;;;;5073556;28;20111;-60
2021/07/20 11:35:45;;;;;;;7.65;5.63;;;;;;;;;;5073462;28;20020;-71
2021/07/20 11:38:12;;;;;;;5.55;4.80;;;;;;;;;;5073579;28;20024;-72
2021/07/20 11:40:56;;;;;;;8.25;6.18;;;;;;;;;;5075649;28;20029;-72
2021/07/20 11:43:45;;;;;;;7.10;5.55;;;;;;;;;;5094020;28;20046;-72
2021/07/20 11:46:14;;;;;;;6.47;5.38;;;;;;;;;;5046516;28;20051;-72
2021/07/20 11:48:52;;;;;;;6.18;4.88;;;;;;;;;;5075672;28;20080;-71
2021/07/20 11:51:22;;;;;;;6.78;5.18;;;;;;;;;;5093729;28;20036;-71
2021/07/20 11:54:06;;;;;;;12.52;4.95;;;;;;;;;;5093917;28;20016;-72
2021/07/20 11:56:55;;;;;;;7.55;5.10;;;;;;;;;;5093467;28;20028;-72
2021/07/20 11:59:39;;;;;;;7.00;4.97;;;;;;;;;;5093263;28;20034;-71
2021/07/20 12:02:23;;;;;;;6.55;5.10;;;;;;;;;;5093662;28;20480;-72
2021/07/20 12:04:49;;;;;;;5.85;5.03;;;;;;;;;;5093401;28;20020;-71
2021/07/20 12:07:21;;;;;;;8.15;5.38;;;;;;;;;;5093549;28;20020;-72
2021/07/20 12:10:04;;;;;;;8.02;6.00;;;;;;;;;;5093704;28;20024;-72
2021/07/20 12:12:45;;;;;;;12.13;6.07;;;;;;;;;;5093348;28;20031;-72
2021/07/20 12:15:14;;;;;;;7.22;6.22;;;;;;;;;;5093179;28;20078;-72
2021/07/20 12:17:40;;;;;;;6.07;5.47;;;;;;;;;;5093202;28;20030;-72
2021/07/20 12:20:08;;;;;;;6.07;4.88;;;;;;;;;;5093575;28;20119;-72
2021/07/20 12:22:33;;;;;;;5.80;5.25;;;;;;;;;;5093421;28;20391;-72
2021/07/20 12:25:06;;;;;;;7.43;5.68;;;;;;;;;;5093296;28;20036;-72
2021/07/20 12:27:36;;;;;;;6.15;5.50;;;;;;;;;;5093176;28;20111;-72
2021/07/20 12:30:03;;;;;;;7.07;5.53;;;;;;;;;;5093136;28;20024;-73
2021/07/20 12:32:30;;;;;;;7.72;5.47;;;;;;;;;;5093150;28;20752;-73
2021/07/20 12:35:00;;;;;;;7.03;6.10;;;;;;;;;;5093222;28;20028;-73
2021/07/20 12:37:25;;;;;;;6.97;6.18;;;;;;;;;;5093213;28;20472;-73
2021/07/20 12:39:57;;;;;;;6.57;5.88;;;;;;;;;;5095462;28;20027;-73
2021/07/20 12:42:23;;;;;;;9.65;6.82;;;;;;;;;;5097127;28;20044;-72
2021/07/20 12:45:21;;;;;;;9.85;7.55;;;;;;;;;;5097061;28;20064;-73
2021/07/20 12:47:47;;;;;;;7.50;5.60;;;;;;;;;;5041074;28;20092;-61
2021/07/20 12:50:14;;;;;;;7.45;6.03;;;;;;;;;;5096954;28;20031;-61
2021/07/20 12:52:45;;;;;;;8.93;5.80;;;;;;;;;;5097099;28;20028;-60
2021/07/20 12:55:12;;;;;;;9.63;6.40;;;;;;;;;;5096712;28;20024;-61
2021/07/20 12:57:38;;;;;;;8.43;5.93;;;;;;;;;;5096723;28;20012;-73
2021/07/20 13:00:05;;;;;;;8.48;5.72;;;;;;;;;;5078441;28;20034;-73
2021/07/20 13:02:31;;;;;;;7.35;5.60;;;;;;;;;;5096667;28;20023;-61
2021/07/20 13:04:57;;;;;;;8.35;5.97;;;;;;;;;;5096726;28;20028;-61
2021/07/20 13:07:23;;;;;;;8.90;6.45;;;;;;;;;;5096530;28;20016;-61
2021/07/20 13:09:48;;;;;;;9.05;5.90;;;;;;;;;;5096650;28;20491;-61
2021/07/20 13:12:19;;;;;;;10.82;6.40;;;;;;;;;;5096779;28;20061;-61
2021/07/20 13:14:46;;;;;;;7.13;5.85;;;;;;;;;;5096591;28;20110;-61
2021/07/20 13:17:11;;;;;;;10.27;6.28;;;;;;;;;;5096571;28;20016;-60
2021/07/20 13:19:37;;;;;;;7.10;6.18;;;;;;;;;;5096379;28;20058;-61
2021/07/20 13:22:03;;;;;;;8.43;6.03;;;;;;;;;;5096464;28;20032;-60
2021/07/20 13:24:29;;;;;;;7.80;6.05;;;;;;;;;;5096299;28;20028;-60
2021/07/20 13:26:58;;;;;;;8.77;6.18;;;;;;;;;;5077885;28;20164;-61
2021/07/20 13:29:24;;;;;;;7.63;6.13;;;;;;;;;;5078129;28;20059;-60
2021/07/20 13:31:50;;;;;;;7.38;5.90;;;;;;;;;;5096203;28;20043;-61
2021/07/20 13:34:17;;;;;;;8.65;5.85;;;;;;;;;;5096085;28;20024;-60
2021/07/20 13:36:43;;;;;;;8.77;6.18;;;;;;;;;;5096060;28;20020;-61
2021/07/20 13:39:10;;;;;;;8.10;5.78;;;;;;;;;;5077725;28;20027;-61
2021/07/20 13:41:36;;;;;;;9.10;5.78;;;;;;;;;;5095813;28;20044;-61
2021/07/20 13:44:03;;;;;;;9.90;6.05;;;;;;;;;;5096074;28;20020;-61
2021/07/20 13:46:30;;;;;;;8.20;5.65;;;;;;;;;;5095915;28;20031;-61
2021/07/20 13:48:57;;;;;;;10.25;6.20;;;;;;;;;;5095938;28;20050;-61
2021/07/20 13:51:23;;;;;;;12.55;7.90;;;;;;;;;;5095340;28;20016;-61
2021/07/20 13:53:52;;;;;;;14.25;8.60;;;;;;;;;;5095374;28;20031;-60
2021/07/20 13:56:36;;;;;;;14.68;8.20;;;;;;;;;;5095882;28;20054;-60
2021/07/20 13:59:03;;;;;;;12.07;7.85;;;;;;;;;;5095813;28;20034;-61
2021/07/20 14:01:30;;;;;;;12.18;7.63;;;;;;;;;;5095656;28;20016;-61
2021/07/20 14:03:56;;;;;;;16.20;8.07;;;;;;;;;;5095542;28;20125;-60
2021/07/20 14:06:22;;;;;;;14.77;7.50;;;;;;;;;;5095554;28;20470;-60
2021/07/20 14:08:48;;;;;;;13.75;7.55;;;;;;;;;;5077260;28;20131;-61
2021/07/20 14:11:14;;;;;;;15.30;7.95;;;;;;;;;;5095382;28;20020;-60
2021/07/20 14:13:43;;;;;;;13.23;7.72;;;;;;;;;;5095396;28;20069;-60
2021/07/20 14:16:11;;;;;;;14.48;7.95;;;;;;;;;;5095147;28;20107;-61
2021/07/20 14:18:41;;;;;;;12.35;7.07;;;;;;;;;;5095382;28;20099;-61
2021/07/20 14:21:07;;;;;;;10.13;7.20;;;;;;;;;;5095161;28;20024;-60
2021/07/20 14:23:40;;;;;;;14.23;7.63;;;;;;;;;;5095087;28;20304;-60
2021/07/20 14:26:11;;;;;;;12.45;7.88;;;;;;;;;;5095265;28;20034;-61
2021/07/20 14:28:38;;;;;;;11.93;6.78;;;;;;;;;;5095277;28;20035;-60
2021/07/20 14:31:03;;;;;;;15.45;7.63;;;;;;;;;;5095093;28;20070;-60
2021/07/20 14:33:30;;;;;;;12.10;6.43;;;;;;;;;;5094872;28;20471;-60
2021/07/20 14:35:55;;;;;;;15.27;7.68;;;;;;;;;;5094755;28;20012;-61
2021/07/20 14:38:35;;;;;;;12.45;7.40;;;;;;;;;;5094987;28;20028;-61
2021/07/20 14:41:11;;;;;;;12.93;7.63;;;;;;;;;;5076347;28;20711;-60
2021/07/20 14:43:37;;;;;;;17.73;8.27;;;;;;;;;;5095056;28;20093;-60
2021/07/20 14:46:10;;;;;;;11.23;7.88;;;;;;;;;;5094791;28;20418;-68
2021/07/20 14:48:43;;;;;;;12.65;7.85;;;;;;;;;;5094937;28;20125;-70
2021/07/20 14:51:08;;;;;;;10.82;6.78;;;;;;;;;;5094759;28;20055;-70
2021/07/20 14:53:35;;;;;;;14.88;7.32;;;;;;;;;;5094084;28;20415;-70
2021/07/20 14:56:11;;;;;;;16.65;7.55;;;;;;;;;;5093947;28;20024;-70
2021/07/20 14:58:41;;;;;;;13.10;8.07;;;;;;;;;;5093923;28;20035;-71
2021/07/20 15:01:12;;;;;;;18.30;8.13;;;;;;;;;;5094593;28;20074;-71
2021/07/20 15:03:50;;;;;;;13.55;7.40;;;;;;;;;;5076015;28;20672;-71